Theodore — CFN7012 — position and weather

sailwx.info

Track history (hours):
 
Tides and Currents Weather Stations Pressure Air Temp Water Temp Dewpoint Dewpoint Depression Visibility Wind Speed Wind Dir Waves Ship Positions

Theodore

Last reported at 2017-Nov-13 01:58 UTC. Time now 2017-Nov-22 13:07 UTC.
Position N 48°27' W 123°18'.
Warning: this ship's position is 9 days out of date.

Length 8 m.

Type: Pleasure craft. MMSI: 316029041.

Date/timePositionNaut miles runAvg speedWind from/ knotsBaromVisibWave heightAir tempDewpointWater temp
2017-Nov-13 01:58N 48°27' W 123°18'0 0.0
2017-Nov-13 01:28N 48°27' W 123°18'0 0.0
2017-Nov-13 00:58N 48°27' W 123°18'0 0.0
2017-Nov-13 00:28N 48°27' W 123°18'0 0.0
2017-Nov-12 23:58N 48°27' W 123°18'0 0.0
2017-Nov-12 23:28N 48°27' W 123°18'0 0.0
2017-Nov-12 22:58N 48°27' W 123°18'0 0.0
2017-Nov-12 22:28N 48°27' W 123°18'0 0.0
2017-Nov-12 21:58N 48°27' W 123°18'0 1.1
2017-Nov-12 21:30N 48°27' W 123°17'3 6.3
2017-Nov-12 21:00N 48°29' W 123°14'3 6.6
2017-Nov-12 20:30N 48°33' W 123°12'2 0.6
2017-Nov-12 17:08N 48°34' W 123°11'1 0.7
2017-Nov-12 16:06N 48°35' W 123°10'0 4.4
2017-Nov-12 16:00N 48°35' W 123°10'1 0.0
2017-Nov-10 20:31N 48°35' W 123°10'1 5.9
2017-Nov-10 20:21N 48°34' W 123°11'2 6.8
2017-Nov-10 19:59N 48°32' W 123°13'3 6.1
2017-Nov-10 19:31N 48°29' W 123°14'3 5.3
2017-Nov-10 19:01N 48°27' W 123°17'1 1.4
2017-Nov-10 18:29N 48°27' W 123°18'0 0.0
2017-Nov-10 17:59N 48°27' W 123°18'0 0.0
2017-Nov-10 05:41N 48°27' W 123°18'0 0.0
2017-Nov-10 05:29N 48°27' W 123°18'0 0.0
2017-Nov-10 04:59N 48°27' W 123°18'0 0.0
2017-Nov-10 04:29N 48°27' W 123°18'0 0.0
2017-Nov-10 03:59N 48°27' W 123°18'0 0.0
2017-Nov-10 03:29N 48°27' W 123°18'  
Track history (hours):
 
Tides and Currents Weather Stations Pressure Air Temp Water Temp Dewpoint Dewpoint Depression Visibility Wind Speed Wind Dir Waves Ship Positions

Theodore

Last reported at 2017-Nov-13 01:58 UTC. Time now 2017-Nov-22 13:07 UTC.
Position N 48°27' W 123°18'.
Warning: this ship's position is 9 days out of date.

Length 8 m.

Type: Pleasure craft. MMSI: 316029041.

Date/timePositionNaut miles runAvg speedWind from/ knotsBaromVisibWave heightAir tempDewpointWater temp
2017-Nov-13 01:58N 48°27' W 123°18'0 0.0
2017-Nov-13 01:28N 48°27' W 123°18'0 0.0
2017-Nov-13 00:58N 48°27' W 123°18'0 0.0
2017-Nov-13 00:28N 48°27' W 123°18'0 0.0
2017-Nov-12 23:58N 48°27' W 123°18'0 0.0
2017-Nov-12 23:28N 48°27' W 123°18'0 0.0
2017-Nov-12 22:58N 48°27' W 123°18'0 0.0
2017-Nov-12 22:28N 48°27' W 123°18'0 0.0
2017-Nov-12 21:58N 48°27' W 123°18'0 1.1
2017-Nov-12 21:30N 48°27' W 123°17'3 6.3
2017-Nov-12 21:00N 48°29' W 123°14'3 6.6
2017-Nov-12 20:30N 48°33' W 123°12'2 0.6
2017-Nov-12 17:08N 48°34' W 123°11'1 0.7
2017-Nov-12 16:06N 48°35' W 123°10'0 4.4
2017-Nov-12 16:00N 48°35' W 123°10'1 0.0
2017-Nov-10 20:31N 48°35' W 123°10'1 5.9
2017-Nov-10 20:21N 48°34' W 123°11'2 6.8
2017-Nov-10 19:59N 48°32' W 123°13'3 6.1
2017-Nov-10 19:31N 48°29' W 123°14'3 5.3
2017-Nov-10 19:01N 48°27' W 123°17'1 1.4
2017-Nov-10 18:29N 48°27' W 123°18'0 0.0
2017-Nov-10 17:59N 48°27' W 123°18'0 0.0
2017-Nov-10 05:41N 48°27' W 123°18'0 0.0
2017-Nov-10 05:29N 48°27' W 123°18'0 0.0
2017-Nov-10 04:59N 48°27' W 123°18'0 0.0
2017-Nov-10 04:29N 48°27' W 123°18'0 0.0
2017-Nov-10 03:59N 48°27' W 123°18'0 0.0
2017-Nov-10 03:29N 48°27' W 123°18'  

Dump ship's entire track history